sensor_id;sensor_type;location;lat;lon;timestamp;temperature;humidity
14170;DHT22;63889;50.596;8.690;2023-06-14T00:01:40;20.20;81.70
14170;DHT22;63889;50.596;8.690;2023-06-14T00:04:06;20.10;82.00
14170;DHT22;63889;50.596;8.690;2023-06-14T00:06:34;20.10;81.40
14170;DHT22;63889;50.596;8.690;2023-06-14T00:08:59;20.20;81.70
14170;DHT22;63889;50.596;8.690;2023-06-14T00:11:25;20.20;80.80
14170;DHT22;63889;50.596;8.690;2023-06-14T00:13:52;20.20;80.80
14170;DHT22;63889;50.596;8.690;2023-06-14T00:16:24;20.20;81.30
14170;DHT22;63889;50.596;8.690;2023-06-14T00:18:49;20.10;82.00
14170;DHT22;63889;50.596;8.690;2023-06-14T00:21:18;20.10;82.10
14170;DHT22;63889;50.596;8.690;2023-06-14T00:23:45;20.00;82.90
14170;DHT22;63889;50.596;8.690;2023-06-14T00:26:11;19.90;83.20
14170;DHT22;63889;50.596;8.690;2023-06-14T00:28:36;19.80;83.60
14170;DHT22;63889;50.596;8.690;2023-06-14T00:31:02;19.80;83.60
14170;DHT22;63889;50.596;8.690;2023-06-14T00:33:27;19.70;84.20
14170;DHT22;63889;50.596;8.690;2023-06-14T00:35:53;19.70;84.50
14170;DHT22;63889;50.596;8.690;2023-06-14T00:38:19;19.70;84.60
14170;DHT22;63889;50.596;8.690;2023-06-14T00:40:45;19.60;84.60
14170;DHT22;63889;50.596;8.690;2023-06-14T00:43:11;19.60;84.50
14170;DHT22;63889;50.596;8.690;2023-06-14T00:45:36;19.50;85.00
14170;DHT22;63889;50.596;8.690;2023-06-14T00:48:02;19.50;85.00
14170;DHT22;63889;50.596;8.690;2023-06-14T00:50:28;19.50;84.60
14170;DHT22;63889;50.596;8.690;2023-06-14T00:52:55;19.50;85.10
14170;DHT22;63889;50.596;8.690;2023-06-14T00:55:21;19.60;85.10
14170;DHT22;63889;50.596;8.690;2023-06-14T00:57:47;19.50;84.90
14170;DHT22;63889;50.596;8.690;2023-06-14T01:00:13;19.50;84.60
14170;DHT22;63889;50.596;8.690;2023-06-14T01:02:39;19.30;84.90
14170;DHT22;63889;50.596;8.690;2023-06-14T01:05:06;19.30;85.40
14170;DHT22;63889;50.596;8.690;2023-06-14T01:07:47;19.30;85.70
14170;DHT22;63889;50.596;8.690;2023-06-14T01:10:35;19.30;85.80
14170;DHT22;63889;50.596;8.690;2023-06-14T01:13:11;19.10;86.00
14170;DHT22;63889;50.596;8.690;2023-06-14T01:15:38;19.10;86.30
14170;DHT22;63889;50.596;8.690;2023-06-14T01:18:05;19.00;86.80
14170;DHT22;63889;50.596;8.690;2023-06-14T01:20:32;18.90;86.90
14170;DHT22;63889;50.596;8.690;2023-06-14T01:22:59;18.90;87.70
14170;DHT22;63889;50.596;8.690;2023-06-14T01:25:25;18.90;87.20
14170;DHT22;63889;50.596;8.690;2023-06-14T01:27:53;19.00;87.00
14170;DHT22;63889;50.596;8.690;2023-06-14T01:30:22;19.00;87.10
14170;DHT22;63889;50.596;8.690;2023-06-14T01:32:49;18.80;87.00
14170;DHT22;63889;50.596;8.690;2023-06-14T01:35:16;18.60;88.00
14170;DHT22;63889;50.596;8.690;2023-06-14T01:37:42;18.50;88.00
14170;DHT22;63889;50.596;8.690;2023-06-14T01:40:09;18.60;88.20
14170;DHT22;63889;50.596;8.690;2023-06-14T01:42:37;18.70;87.90
14170;DHT22;63889;50.596;8.690;2023-06-14T01:45:05;18.60;88.40
14170;DHT22;63889;50.596;8.690;2023-06-14T01:47:31;18.40;88.70
14170;DHT22;63889;50.596;8.690;2023-06-14T01:49:58;18.40;88.90
14170;DHT22;63889;50.596;8.690;2023-06-14T01:52:23;18.40;88.90
14170;DHT22;63889;50.596;8.690;2023-06-14T01:54:50;18.40;89.00
14170;DHT22;63889;50.596;8.690;2023-06-14T01:57:15;18.40;88.90
14170;DHT22;63889;50.596;8.690;2023-06-14T01:59:41;18.20;89.20
14170;DHT22;63889;50.596;8.690;2023-06-14T02:02:07;18.20;89.70
14170;DHT22;63889;50.596;8.690;2023-06-14T02:04:33;18.00;90.00
14170;DHT22;63889;50.596;8.690;2023-06-14T02:06:58;18.00;90.20
14170;DHT22;63889;50.596;8.690;2023-06-14T02:09:24;18.10;90.20
14170;DHT22;63889;50.596;8.690;2023-06-14T02:11:50;18.00;90.40
14170;DHT22;63889;50.596;8.690;2023-06-14T02:14:16;18.20;90.60
14170;DHT22;63889;50.596;8.690;2023-06-14T02:16:42;18.20;90.40
14170;DHT22;63889;50.596;8.690;2023-06-14T02:19:18;18.10;90.30
14170;DHT22;63889;50.596;8.690;2023-06-14T02:21:44;18.20;90.50
14170;DHT22;63889;50.596;8.690;2023-06-14T02:24:10;18.00;90.60
14170;DHT22;63889;50.596;8.690;2023-06-14T02:26:36;18.10;90.70
14170;DHT22;63889;50.596;8.690;2023-06-14T02:29:03;18.30;90.60
14170;DHT22;63889;50.596;8.690;2023-06-14T02:31:31;18.30;91.10
14170;DHT22;63889;50.596;8.690;2023-06-14T02:33:56;18.30;90.60
14170;DHT22;63889;50.596;8.690;2023-06-14T02:36:22;18.30;90.60
14170;DHT22;63889;50.596;8.690;2023-06-14T02:38:47;18.20;90.40
14170;DHT22;63889;50.596;8.690;2023-06-14T02:41:13;18.10;90.80
14170;DHT22;63889;50.596;8.690;2023-06-14T02:43:38;18.20;91.20
14170;DHT22;63889;50.596;8.690;2023-06-14T02:46:04;18.20;90.60
14170;DHT22;63889;50.596;8.690;2023-06-14T02:48:30;18.20;91.20
14170;DHT22;63889;50.596;8.690;2023-06-14T02:50:55;18.20;91.00
14170;DHT22;63889;50.596;8.690;2023-06-14T02:53:22;18.10;90.70
14170;DHT22;63889;50.596;8.690;2023-06-14T02:55:47;18.10;91.00
14170;DHT22;63889;50.596;8.690;2023-06-14T02:58:14;18.10;91.20
14170;DHT22;63889;50.596;8.690;2023-06-14T03:00:39;18.10;91.00
14170;DHT22;63889;50.596;8.690;2023-06-14T03:03:06;18.00;91.30
14170;DHT22;63889;50.596;8.690;2023-06-14T03:05:44;18.00;91.10
14170;DHT22;63889;50.596;8.690;2023-06-14T03:08:13;18.10;91.10
14170;DHT22;63889;50.596;8.690;2023-06-14T03:10:43;18.00;91.30
14170;DHT22;63889;50.596;8.690;2023-06-14T03:13:09;17.90;91.40
14170;DHT22;63889;50.596;8.690;2023-06-14T03:15:36;17.80;91.80
14170;DHT22;63889;50.596;8.690;2023-06-14T03:18:01;17.70;92.10
14170;DHT22;63889;50.596;8.690;2023-06-14T03:20:29;17.60;92.20
14170;DHT22;63889;50.596;8.690;2023-06-14T03:22:55;17.50;92.30
14170;DHT22;63889;50.596;8.690;2023-06-14T03:25:20;17.50;92.40
14170;DHT22;63889;50.596;8.690;2023-06-14T03:27:47;17.50;92.70
14170;DHT22;63889;50.596;8.690;2023-06-14T03:30:13;17.50;92.90
14170;DHT22;63889;50.596;8.690;2023-06-14T03:32:39;17.50;93.00
14170;DHT22;63889;50.596;8.690;2023-06-14T03:35:05;17.50;92.90
14170;DHT22;63889;50.596;8.690;2023-06-14T03:37:31;17.40;93.10
14170;DHT22;63889;50.596;8.690;2023-06-14T03:39:56;17.50;93.60
14170;DHT22;63889;50.596;8.690;2023-06-14T03:42:22;17.50;93.20
14170;DHT22;63889;50.596;8.690;2023-06-14T03:44:47;17.40;93.40
14170;DHT22;63889;50.596;8.690;2023-06-14T03:47:13;17.50;93.40
14170;DHT22;63889;50.596;8.690;2023-06-14T03:49:38;17.40;93.60
14170;DHT22;63889;50.596;8.690;2023-06-14T03:52:05;17.40;93.70
14170;DHT22;63889;50.596;8.690;2023-06-14T03:54:30;17.30;93.90
14170;DHT22;63889;50.596;8.690;2023-06-14T03:56:58;17.40;94.20
14170;DHT22;63889;50.596;8.690;2023-06-14T03:59:24;17.40;94.20
14170;DHT22;63889;50.596;8.690;2023-06-14T04:01:49;17.40;94.10
14170;DHT22;63889;50.596;8.690;2023-06-14T04:04:15;17.40;94.30
14170;DHT22;63889;50.596;8.690;2023-06-14T04:06:43;17.30;94.60
14170;DHT22;63889;50.596;8.690;2023-06-14T04:09:09;17.30;95.00
14170;DHT22;63889;50.596;8.690;2023-06-14T04:11:35;17.40;94.90
14170;DHT22;63889;50.596;8.690;2023-06-14T04:14:01;17.60;94.70
14170;DHT22;63889;50.596;8.690;2023-06-14T04:16:27;17.60;94.60
14170;DHT22;63889;50.596;8.690;2023-06-14T04:18:55;17.60;94.80
14170;DHT22;63889;50.596;8.690;2023-06-14T04:21:20;17.50;95.20
14170;DHT22;63889;50.596;8.690;2023-06-14T04:23:46;17.60;95.10
14170;DHT22;63889;50.596;8.690;2023-06-14T04:26:12;17.70;95.10
14170;DHT22;63889;50.596;8.690;2023-06-14T04:28:37;17.70;95.00
14170;DHT22;63889;50.596;8.690;2023-06-14T04:31:06;17.70;95.50
14170;DHT22;63889;50.596;8.690;2023-06-14T04:33:36;17.70;95.60
14170;DHT22;63889;50.596;8.690;2023-06-14T04:36:09;17.70;96.00
14170;DHT22;63889;50.596;8.690;2023-06-14T04:38:35;17.70;96.20
14170;DHT22;63889;50.596;8.690;2023-06-14T04:41:01;17.70;96.60
14170;DHT22;63889;50.596;8.690;2023-06-14T04:43:28;17.80;96.20
14170;DHT22;63889;50.596;8.690;2023-06-14T04:45:53;17.80;96.20
14170;DHT22;63889;50.596;8.690;2023-06-14T04:48:22;17.90;96.20
14170;DHT22;63889;50.596;8.690;2023-06-14T04:50:47;17.90;96.00
14170;DHT22;63889;50.596;8.690;2023-06-14T04:53:13;17.90;96.00
14170;DHT22;63889;50.596;8.690;2023-06-14T04:55:40;17.80;96.20
14170;DHT22;63889;50.596;8.690;2023-06-14T04:58:10;17.80;96.20
14170;DHT22;63889;50.596;8.690;2023-06-14T05:00:38;17.90;96.20
14170;DHT22;63889;50.596;8.690;2023-06-14T05:03:03;17.80;96.60
14170;DHT22;63889;50.596;8.690;2023-06-14T05:05:31;17.80;96.40
14170;DHT22;63889;50.596;8.690;2023-06-14T05:07:57;17.80;97.00
14170;DHT22;63889;50.596;8.690;2023-06-14T05:10:24;17.80;96.70
14170;DHT22;63889;50.596;8.690;2023-06-14T05:12:49;18.00;97.00
14170;DHT22;63889;50.596;8.690;2023-06-14T05:15:15;18.00;97.20
14170;DHT22;63889;50.596;8.690;2023-06-14T05:17:41;18.00;97.20
14170;DHT22;63889;50.596;8.690;2023-06-14T05:20:07;18.20;97.20
14170;DHT22;63889;50.596;8.690;2023-06-14T05:22:35;18.10;97.20
14170;DHT22;63889;50.596;8.690;2023-06-14T05:25:01;18.20;97.50
14170;DHT22;63889;50.596;8.690;2023-06-14T05:27:27;18.30;97.40
14170;DHT22;63889;50.596;8.690;2023-06-14T05:29:52;18.30;97.50
14170;DHT22;63889;50.596;8.690;2023-06-14T05:32:21;18.40;97.80
14170;DHT22;63889;50.596;8.690;2023-06-14T05:34:46;18.00;97.80
14170;DHT22;63889;50.596;8.690;2023-06-14T05:37:12;18.20;98.00
14170;DHT22;63889;50.596;8.690;2023-06-14T05:39:38;18.20;97.80
14170;DHT22;63889;50.596;8.690;2023-06-14T05:42:04;18.10;98.20
14170;DHT22;63889;50.596;8.690;2023-06-14T05:44:29;18.00;97.80
14170;DHT22;63889;50.596;8.690;2023-06-14T05:46:55;17.90;98.50
14170;DHT22;63889;50.596;8.690;2023-06-14T05:49:20;17.90;98.90
14170;DHT22;63889;50.596;8.690;2023-06-14T05:51:46;18.00;98.90
14170;DHT22;63889;50.596;8.690;2023-06-14T05:54:11;18.10;98.50
14170;DHT22;63889;50.596;8.690;2023-06-14T05:56:37;18.20;98.90
14170;DHT22;63889;50.596;8.690;2023-06-14T05:59:02;18.40;98.80
14170;DHT22;63889;50.596;8.690;2023-06-14T06:01:28;18.20;98.90
14170;DHT22;63889;50.596;8.690;2023-06-14T06:03:53;18.10;99.10
14170;DHT22;63889;50.596;8.690;2023-06-14T06:06:19;18.30;99.40
14170;DHT22;63889;50.596;8.690;2023-06-14T06:08:45;18.40;99.20
14170;DHT22;63889;50.596;8.690;2023-06-14T06:11:10;18.50;98.90
14170;DHT22;63889;50.596;8.690;2023-06-14T06:13:36;18.50;98.60
14170;DHT22;63889;50.596;8.690;2023-06-14T06:16:03;18.30;98.80
14170;DHT22;63889;50.596;8.690;2023-06-14T06:18:28;18.50;99.50
14170;DHT22;63889;50.596;8.690;2023-06-14T06:20:54;18.60;99.50
14170;DHT22;63889;50.596;8.690;2023-06-14T06:23:20;18.70;99.10
14170;DHT22;63889;50.596;8.690;2023-06-14T06:25:46;18.60;98.90
14170;DHT22;63889;50.596;8.690;2023-06-14T06:28:12;18.60;99.20
14170;DHT22;63889;50.596;8.690;2023-06-14T06:30:38;18.60;99.50
14170;DHT22;63889;50.596;8.690;2023-06-14T06:33:03;18.70;99.10
14170;DHT22;63889;50.596;8.690;2023-06-14T06:35:29;18.70;99.10
14170;DHT22;63889;50.596;8.690;2023-06-14T06:37:56;19.00;99.20
14170;DHT22;63889;50.596;8.690;2023-06-14T06:40:21;19.20;99.10
14170;DHT22;63889;50.596;8.690;2023-06-14T06:42:47;19.10;98.90
14170;DHT22;63889;50.596;8.690;2023-06-14T06:45:12;19.20;98.40
14170;DHT22;63889;50.596;8.690;2023-06-14T06:47:38;19.40;98.40
14170;DHT22;63889;50.596;8.690;2023-06-14T06:50:04;19.40;98.10
14170;DHT22;63889;50.596;8.690;2023-06-14T06:52:29;19.30;98.20
14170;DHT22;63889;50.596;8.690;2023-06-14T06:54:55;19.40;97.70
14170;DHT22;63889;50.596;8.690;2023-06-14T06:57:21;19.30;97.90
14170;DHT22;63889;50.596;8.690;2023-06-14T06:59:50;19.30;98.50
14170;DHT22;63889;50.596;8.690;2023-06-14T07:02:16;19.40;98.80
14170;DHT22;63889;50.596;8.690;2023-06-14T07:04:42;19.50;97.70
14170;DHT22;63889;50.596;8.690;2023-06-14T07:07:07;19.40;97.50
14170;DHT22;63889;50.596;8.690;2023-06-14T07:09:35;19.40;97.10
14170;DHT22;63889;50.596;8.690;2023-06-14T07:12:00;19.50;97.20
14170;DHT22;63889;50.596;8.690;2023-06-14T07:14:28;19.50;96.80
14170;DHT22;63889;50.596;8.690;2023-06-14T07:16:55;19.50;96.90
14170;DHT22;63889;50.596;8.690;2023-06-14T07:19:21;19.60;96.90
14170;DHT22;63889;50.596;8.690;2023-06-14T07:21:46;19.70;96.90
14170;DHT22;63889;50.596;8.690;2023-06-14T07:24:13;19.70;97.40
14170;DHT22;63889;50.596;8.690;2023-06-14T07:26:39;19.70;96.90
14170;DHT22;63889;50.596;8.690;2023-06-14T07:29:04;19.80;97.60
14170;DHT22;63889;50.596;8.690;2023-06-14T07:31:30;19.80;98.00
14170;DHT22;63889;50.596;8.690;2023-06-14T07:33:56;19.80;95.90
14170;DHT22;63889;50.596;8.690;2023-06-14T07:36:22;19.80;95.60
14170;DHT22;63889;50.596;8.690;2023-06-14T07:38:47;19.90;96.00
14170;DHT22;63889;50.596;8.690;2023-06-14T07:41:13;20.00;96.50
14170;DHT22;63889;50.596;8.690;2023-06-14T07:43:38;19.90;95.50
14170;DHT22;63889;50.596;8.690;2023-06-14T07:46:04;20.00;95.70
14170;DHT22;63889;50.596;8.690;2023-06-14T07:48:30;20.20;95.10
14170;DHT22;63889;50.596;8.690;2023-06-14T07:50:56;20.20;94.70
14170;DHT22;63889;50.596;8.690;2023-06-14T07:53:21;20.40;95.40
14170;DHT22;63889;50.596;8.690;2023-06-14T07:55:47;20.40;95.10
14170;DHT22;63889;50.596;8.690;2023-06-14T07:58:13;20.50;94.90
14170;DHT22;63889;50.596;8.690;2023-06-14T08:00:39;20.50;94.40
14170;DHT22;63889;50.596;8.690;2023-06-14T08:03:04;20.50;94.10
14170;DHT22;63889;50.596;8.690;2023-06-14T08:05:30;20.60;93.00
14170;DHT22;63889;50.596;8.690;2023-06-14T08:07:56;20.60;93.00
14170;DHT22;63889;50.596;8.690;2023-06-14T08:10:22;20.70;93.70
14170;DHT22;63889;50.596;8.690;2023-06-14T08:12:48;20.80;93.50
14170;DHT22;63889;50.596;8.690;2023-06-14T08:15:17;20.70;94.10
14170;DHT22;63889;50.596;8.690;2023-06-14T08:17:43;20.90;92.60
14170;DHT22;63889;50.596;8.690;2023-06-14T08:20:09;20.80;93.20
14170;DHT22;63889;50.596;8.690;2023-06-14T08:22:36;20.90;92.20
14170;DHT22;63889;50.596;8.690;2023-06-14T08:25:02;20.90;92.50
14170;DHT22;63889;50.596;8.690;2023-06-14T08:27:29;21.00;92.50
14170;DHT22;63889;50.596;8.690;2023-06-14T08:29:55;21.10;92.60
14170;DHT22;63889;50.596;8.690;2023-06-14T08:32:21;21.10;92.40
14170;DHT22;63889;50.596;8.690;2023-06-14T08:34:47;21.00;91.80
14170;DHT22;63889;50.596;8.690;2023-06-14T08:37:12;20.90;92.20
14170;DHT22;63889;50.596;8.690;2023-06-14T08:39:39;21.00;92.50
14170;DHT22;63889;50.596;8.690;2023-06-14T08:42:06;21.10;92.40
14170;DHT22;63889;50.596;8.690;2023-06-14T08:44:33;21.30;91.80
14170;DHT22;63889;50.596;8.690;2023-06-14T08:47:02;21.40;91.40
14170;DHT22;63889;50.596;8.690;2023-06-14T08:49:31;21.60;91.60
14170;DHT22;63889;50.596;8.690;2023-06-14T08:51:59;21.70;91.60
14170;DHT22;63889;50.596;8.690;2023-06-14T08:54:28;21.20;91.30
14170;DHT22;63889;50.596;8.690;2023-06-14T08:56:56;21.20;91.60
14170;DHT22;63889;50.596;8.690;2023-06-14T08:59:25;21.20;91.70
14170;DHT22;63889;50.596;8.690;2023-06-14T09:01:52;21.30;92.20
14170;DHT22;63889;50.596;8.690;2023-06-14T09:04:18;21.30;91.70
14170;DHT22;63889;50.596;8.690;2023-06-14T09:06:45;20.80;91.80
14170;DHT22;63889;50.596;8.690;2023-06-14T09:09:11;20.70;92.60
14170;DHT22;63889;50.596;8.690;2023-06-14T09:11:37;20.80;92.40
14170;DHT22;63889;50.596;8.690;2023-06-14T09:14:03;21.20;91.30
14170;DHT22;63889;50.596;8.690;2023-06-14T09:16:28;21.50;91.20
14170;DHT22;63889;50.596;8.690;2023-06-14T09:18:54;21.50;90.90
14170;DHT22;63889;50.596;8.690;2023-06-14T09:21:19;21.50;91.50
14170;DHT22;63889;50.596;8.690;2023-06-14T09:23:47;21.80;91.20
14170;DHT22;63889;50.596;8.690;2023-06-14T09:26:15;21.90;90.60
14170;DHT22;63889;50.596;8.690;2023-06-14T09:28:42;21.80;90.30
14170;DHT22;63889;50.596;8.690;2023-06-14T09:31:08;21.90;89.70
14170;DHT22;63889;50.596;8.690;2023-06-14T09:33:35;22.20;90.00
14170;DHT22;63889;50.596;8.690;2023-06-14T09:36:01;22.40;89.30
14170;DHT22;63889;50.596;8.690;2023-06-14T09:38:26;22.70;87.80
14170;DHT22;63889;50.596;8.690;2023-06-14T09:40:52;22.90;86.30
14170;DHT22;63889;50.596;8.690;2023-06-14T09:43:17;22.90;86.80
14170;DHT22;63889;50.596;8.690;2023-06-14T09:45:45;22.90;85.60
14170;DHT22;63889;50.596;8.690;2023-06-14T09:48:14;22.90;86.30
14170;DHT22;63889;50.596;8.690;2023-06-14T09:50:45;23.00;86.30
14170;DHT22;63889;50.596;8.690;2023-06-14T09:53:12;23.00;85.00
14170;DHT22;63889;50.596;8.690;2023-06-14T09:55:40;22.70;85.30
14170;DHT22;63889;50.596;8.690;2023-06-14T09:58:07;22.70;86.20
14170;DHT22;63889;50.596;8.690;2023-06-14T10:00:34;22.50;86.30
14170;DHT22;63889;50.596;8.690;2023-06-14T10:03:05;22.80;86.70
14170;DHT22;63889;50.596;8.690;2023-06-14T10:05:32;23.00;87.90
14170;DHT22;63889;50.596;8.690;2023-06-14T10:08:04;23.20;85.40
14170;DHT22;63889;50.596;8.690;2023-06-14T10:10:33;23.20;85.30
14170;DHT22;63889;50.596;8.690;2023-06-14T10:12:59;23.00;87.10
14170;DHT22;63889;50.596;8.690;2023-06-14T10:15:35;22.90;85.60
14170;DHT22;63889;50.596;8.690;2023-06-14T10:18:11;22.90;85.50
14170;DHT22;63889;50.596;8.690;2023-06-14T10:23:21;23.30;85.90
14170;DHT22;63889;50.596;8.690;2023-06-14T10:25:50;23.40;85.00
14170;DHT22;63889;50.596;8.690;2023-06-14T10:28:18;23.70;84.30
14170;DHT22;63889;50.596;8.690;2023-06-14T10:33:29;23.90;83.20
14170;DHT22;63889;50.596;8.690;2023-06-14T10:36:31;24.10;85.00
14170;DHT22;63889;50.596;8.690;2023-06-14T10:39:08;24.30;81.60
14170;DHT22;63889;50.596;8.690;2023-06-14T10:41:38;24.30;80.20
14170;DHT22;63889;50.596;8.690;2023-06-14T10:46:39;23.90;84.20
14170;DHT22;63889;50.596;8.690;2023-06-14T10:49:04;24.20;80.00
14170;DHT22;63889;50.596;8.690;2023-06-14T10:51:39;24.10;79.20
14170;DHT22;63889;50.596;8.690;2023-06-14T10:54:12;24.00;79.80
14170;DHT22;63889;50.596;8.690;2023-06-14T10:56:48;23.80;80.10
14170;DHT22;63889;50.596;8.690;2023-06-14T10:59:14;24.10;80.60
14170;DHT22;63889;50.596;8.690;2023-06-14T11:04:51;24.80;79.00
14170;DHT22;63889;50.596;8.690;2023-06-14T11:10:37;24.30;79.10
14170;DHT22;63889;50.596;8.690;2023-06-14T11:13:03;23.80;78.90
14170;DHT22;63889;50.596;8.690;2023-06-14T11:15:30;23.70;80.30
14170;DHT22;63889;50.596;8.690;2023-06-14T11:18:02;23.50;81.40
14170;DHT22;63889;50.596;8.690;2023-06-14T11:20:30;23.40;83.20
14170;DHT22;63889;50.596;8.690;2023-06-14T11:22:57;23.40;83.40
14170;DHT22;63889;50.596;8.690;2023-06-14T11:25:23;23.90;82.20
14170;DHT22;63889;50.596;8.690;2023-06-14T11:27:52;24.80;81.90
14170;DHT22;63889;50.596;8.690;2023-06-14T11:30:17;24.90;79.70
14170;DHT22;63889;50.596;8.690;2023-06-14T11:32:50;24.90;76.90
14170;DHT22;63889;50.596;8.690;2023-06-14T11:35:17;24.70;77.00
14170;DHT22;63889;50.596;8.690;2023-06-14T11:37:43;24.50;79.20
14170;DHT22;63889;50.596;8.690;2023-06-14T11:40:13;24.60;80.40
14170;DHT22;63889;50.596;8.690;2023-06-14T11:42:40;24.30;78.80
14170;DHT22;63889;50.596;8.690;2023-06-14T11:45:10;24.20;80.30
14170;DHT22;63889;50.596;8.690;2023-06-14T11:47:37;24.90;78.80
14170;DHT22;63889;50.596;8.690;2023-06-14T11:50:04;24.90;78.50
14170;DHT22;63889;50.596;8.690;2023-06-14T11:52:31;24.40;79.60
14170;DHT22;63889;50.596;8.690;2023-06-14T11:54:57;24.70;79.20
14170;DHT22;63889;50.596;8.690;2023-06-14T11:57:24;24.90;79.50
14170;DHT22;63889;50.596;8.690;2023-06-14T11:59:49;24.60;79.60
14170;DHT22;63889;50.596;8.690;2023-06-14T12:02:16;24.80;80.40
14170;DHT22;63889;50.596;8.690;2023-06-14T12:04:42;24.80;79.60
14170;DHT22;63889;50.596;8.690;2023-06-14T12:07:11;25.20;81.10
14170;DHT22;63889;50.596;8.690;2023-06-14T12:09:41;25.50;77.90
14170;DHT22;63889;50.596;8.690;2023-06-14T12:12:09;25.80;79.70
14170;DHT22;63889;50.596;8.690;2023-06-14T12:14:36;25.90;77.00
14170;DHT22;63889;50.596;8.690;2023-06-14T12:17:06;25.20;77.40
14170;DHT22;63889;50.596;8.690;2023-06-14T12:19:42;24.70;77.40
14170;DHT22;63889;50.596;8.690;2023-06-14T12:22:09;24.10;79.40
14170;DHT22;63889;50.596;8.690;2023-06-14T12:24:35;24.70;79.80
14170;DHT22;63889;50.596;8.690;2023-06-14T12:27:01;24.80;78.50
14170;DHT22;63889;50.596;8.690;2023-06-14T12:29:30;24.90;79.60
14170;DHT22;63889;50.596;8.690;2023-06-14T12:31:56;25.30;78.80
14170;DHT22;63889;50.596;8.690;2023-06-14T12:34:26;25.30;77.70
14170;DHT22;63889;50.596;8.690;2023-06-14T12:36:53;25.20;78.40
14170;DHT22;63889;50.596;8.690;2023-06-14T12:39:19;24.80;78.00
14170;DHT22;63889;50.596;8.690;2023-06-14T12:41:44;25.00;77.00
14170;DHT22;63889;50.596;8.690;2023-06-14T12:44:11;25.00;75.00
14170;DHT22;63889;50.596;8.690;2023-06-14T12:46:37;25.20;74.30
14170;DHT22;63889;50.596;8.690;2023-06-14T12:49:05;25.60;74.90
14170;DHT22;63889;50.596;8.690;2023-06-14T12:51:32;25.80;72.60
14170;DHT22;63889;50.596;8.690;2023-06-14T12:53:57;26.00;73.30
14170;DHT22;63889;50.596;8.690;2023-06-14T12:56:23;25.90;74.20
14170;DHT22;63889;50.596;8.690;2023-06-14T12:58:48;26.20;73.80
14170;DHT22;63889;50.596;8.690;2023-06-14T13:01:14;26.00;73.50
14170;DHT22;63889;50.596;8.690;2023-06-14T13:03:39;26.10;72.60
14170;DHT22;63889;50.596;8.690;2023-06-14T13:06:05;26.30;71.90
14170;DHT22;63889;50.596;8.690;2023-06-14T13:08:30;26.40;71.10
14170;DHT22;63889;50.596;8.690;2023-06-14T13:10:56;26.10;70.70
14170;DHT22;63889;50.596;8.690;2023-06-14T13:13:23;25.90;72.40
14170;DHT22;63889;50.596;8.690;2023-06-14T13:15:49;25.50;72.00
14170;DHT22;63889;50.596;8.690;2023-06-14T13:18:16;25.40;73.00
14170;DHT22;63889;50.596;8.690;2023-06-14T13:20:42;25.20;72.70
14170;DHT22;63889;50.596;8.690;2023-06-14T13:23:08;25.10;73.40
14170;DHT22;63889;50.596;8.690;2023-06-14T13:25:35;25.30;73.00
14170;DHT22;63889;50.596;8.690;2023-06-14T13:28:02;25.60;72.40
14170;DHT22;63889;50.596;8.690;2023-06-14T13:30:27;25.50;73.50
14170;DHT22;63889;50.596;8.690;2023-06-14T13:32:53;25.50;72.30
14170;DHT22;63889;50.596;8.690;2023-06-14T13:35:19;25.20;73.80
14170;DHT22;63889;50.596;8.690;2023-06-14T13:37:45;25.10;74.20
14170;DHT22;63889;50.596;8.690;2023-06-14T13:40:11;25.70;72.90
14170;DHT22;63889;50.596;8.690;2023-06-14T13:42:37;25.80;75.10
14170;DHT22;63889;50.596;8.690;2023-06-14T13:45:03;26.00;71.90
14170;DHT22;63889;50.596;8.690;2023-06-14T13:47:29;25.90;72.00
14170;DHT22;63889;50.596;8.690;2023-06-14T13:49:55;25.60;72.90
14170;DHT22;63889;50.596;8.690;2023-06-14T13:52:21;25.30;72.00
14170;DHT22;63889;50.596;8.690;2023-06-14T13:54:48;25.10;71.60
14170;DHT22;63889;50.596;8.690;2023-06-14T13:57:13;25.10;72.00
14170;DHT22;63889;50.596;8.690;2023-06-14T13:59:40;25.20;73.30
14170;DHT22;63889;50.596;8.690;2023-06-14T14:02:07;25.30;73.10
14170;DHT22;63889;50.596;8.690;2023-06-14T14:04:34;25.40;72.40
14170;DHT22;63889;50.596;8.690;2023-06-14T14:07:01;25.70;72.50
14170;DHT22;63889;50.596;8.690;2023-06-14T14:09:26;25.80;71.50
14170;DHT22;63889;50.596;8.690;2023-06-14T14:11:52;25.60;71.40
14170;DHT22;63889;50.596;8.690;2023-06-14T14:14:17;25.40;71.70
14170;DHT22;63889;50.596;8.690;2023-06-14T14:16:43;25.40;71.50
14170;DHT22;63889;50.596;8.690;2023-06-14T14:19:08;25.50;72.00
14170;DHT22;63889;50.596;8.690;2023-06-14T14:21:34;25.50;72.90
14170;DHT22;63889;50.596;8.690;2023-06-14T14:24:00;25.40;72.20
14170;DHT22;63889;50.596;8.690;2023-06-14T14:26:26;25.10;71.90
14170;DHT22;63889;50.596;8.690;2023-06-14T14:28:52;25.20;72.90
14170;DHT22;63889;50.596;8.690;2023-06-14T14:31:18;25.40;71.90
14170;DHT22;63889;50.596;8.690;2023-06-14T14:33:43;25.30;71.70
14170;DHT22;63889;50.596;8.690;2023-06-14T14:36:09;25.20;72.60
14170;DHT22;63889;50.596;8.690;2023-06-14T14:38:35;25.10;71.20
14170;DHT22;63889;50.596;8.690;2023-06-14T14:41:00;25.20;70.60
14170;DHT22;63889;50.596;8.690;2023-06-14T14:43:26;25.20;70.10
14170;DHT22;63889;50.596;8.690;2023-06-14T14:45:52;25.30;71.40
14170;DHT22;63889;50.596;8.690;2023-06-14T14:48:18;25.40;71.00
14170;DHT22;63889;50.596;8.690;2023-06-14T14:50:43;25.50;72.10
14170;DHT22;63889;50.596;8.690;2023-06-14T14:53:09;25.50;70.40
14170;DHT22;63889;50.596;8.690;2023-06-14T14:55:34;25.40;71.00
14170;DHT22;63889;50.596;8.690;2023-06-14T14:58:02;25.30;70.80
14170;DHT22;63889;50.596;8.690;2023-06-14T15:00:28;25.10;71.70
14170;DHT22;63889;50.596;8.690;2023-06-14T15:02:54;25.00;71.60
14170;DHT22;63889;50.596;8.690;2023-06-14T15:05:19;24.90;71.80
14170;DHT22;63889;50.596;8.690;2023-06-14T15:07:45;25.00;72.10
14170;DHT22;63889;50.596;8.690;2023-06-14T15:10:11;24.70;72.20
14170;DHT22;63889;50.596;8.690;2023-06-14T15:12:37;24.80;72.90
14170;DHT22;63889;50.596;8.690;2023-06-14T15:15:03;25.00;72.50
14170;DHT22;63889;50.596;8.690;2023-06-14T15:17:29;25.10;71.10
14170;DHT22;63889;50.596;8.690;2023-06-14T15:19:55;24.90;70.60
14170;DHT22;63889;50.596;8.690;2023-06-14T15:22:21;24.90;71.60
14170;DHT22;63889;50.596;8.690;2023-06-14T15:24:46;25.10;72.00
14170;DHT22;63889;50.596;8.690;2023-06-14T15:27:12;25.30;70.90
14170;DHT22;63889;50.596;8.690;2023-06-14T15:29:40;25.10;71.00
14170;DHT22;63889;50.596;8.690;2023-06-14T15:32:07;25.10;71.30
14170;DHT22;63889;50.596;8.690;2023-06-14T15:34:32;24.90;70.40
14170;DHT22;63889;50.596;8.690;2023-06-14T15:36:58;24.80;71.70
14170;DHT22;63889;50.596;8.690;2023-06-14T15:39:25;24.80;71.90
14170;DHT22;63889;50.596;8.690;2023-06-14T15:41:52;24.80;71.30